Time;durP1;ratioP1;P1;durP2;ratioP2;P2;SDS_P1;SDS_P2;PMS_P1;PMS_P2;Temp;Humidity;BMP_temperature;BMP_pressure;BME280_temperature;BME280_humidity;BME280_pressure;Samples;Min_cycle;Max_cycle;Signal;HPM_P1;HPM_P2
2023/01/15 00:01:29;;;;;;;2.90;1.47;;;;;;;;;;5030677;28;20450;-76
2023/01/15 00:03:58;;;;;;;2.50;1.63;;;;;;;;;;5030454;28;20450;-76
2023/01/15 00:06:26;;;;;;;1.00;1.00;;;;;;;;;;5030770;28;20469;-75
2023/01/15 00:08:53;;;;;;;1.40;1.30;;;;;;;;;;5031164;28;20530;-77
2023/01/15 00:11:21;;;;;;;0.90;0.80;;;;;;;;;;5031097;28;20933;-75
2023/01/15 00:13:48;;;;;;;0.87;0.87;;;;;;;;;;5030100;28;20449;-75
2023/01/15 00:16:17;;;;;;;1.70;0.93;;;;;;;;;;5045627;28;20448;-75
2023/01/15 00:18:44;;;;;;;2.40;0.90;;;;;;;;;;5050314;28;20474;-75
2023/01/15 00:21:13;;;;;;;1.07;0.97;;;;;;;;;;5049983;28;20456;-75
2023/01/15 00:29:12;;;;;;;1.27;1.20;;;;;;;;;;5050038;28;20449;-75
2023/01/15 00:31:40;;;;;;;0.90;0.90;;;;;;;;;;5050014;28;20449;-75
2023/01/15 00:34:07;;;;;;;1.57;0.80;;;;;;;;;;5050198;28;20499;-75
2023/01/15 00:36:36;;;;;;;1.23;0.93;;;;;;;;;;5050341;28;20512;-75
2023/01/15 00:39:04;;;;;;;0.70;0.70;;;;;;;;;;5050044;28;20474;-74
2023/01/15 00:41:31;;;;;;;2.67;0.80;;;;;;;;;;5037857;28;20910;-74
2023/01/15 00:43:58;;;;;;;1.20;1.10;;;;;;;;;;5030012;28;20446;-75
2023/01/15 00:46:26;;;;;;;0.80;0.80;;;;;;;;;;5030654;28;20469;-74
2023/01/15 00:48:53;;;;;;;1.33;1.23;;;;;;;;;;5031077;28;20993;-75
2023/01/15 00:51:20;;;;;;;1.13;1.07;;;;;;;;;;5034356;28;20857;-75
2023/01/15 00:53:48;;;;;;;1.10;1.10;;;;;;;;;;5034306;28;20558;-74
2023/01/15 00:56:15;;;;;;;1.60;0.90;;;;;;;;;;5034419;28;20462;-74
2023/01/15 00:58:42;;;;;;;1.03;1.00;;;;;;;;;;5034209;28;20516;-74
2023/01/15 01:01:09;;;;;;;0.90;0.90;;;;;;;;;;5034810;28;20446;-75
2023/01/15 01:03:36;;;;;;;1.13;1.03;;;;;;;;;;5035020;28;20438;-74
2023/01/15 01:06:04;;;;;;;1.00;1.00;;;;;;;;;;5035564;28;20438;-75
2023/01/15 01:08:31;;;;;;;2.47;2.27;;;;;;;;;;5039728;28;20453;-75
2023/01/15 01:11:03;;;;;;;1.17;1.10;;;;;;;;;;5068346;28;20792;-75
2023/01/15 01:13:30;;;;;;;3.20;2.97;;;;;;;;;;5073582;28;20448;-74
2023/01/15 01:15:57;;;;;;;0.90;0.90;;;;;;;;;;5061181;28;20446;-74
2023/01/15 01:18:24;;;;;;;1.37;0.80;;;;;;;;;;5053824;28;20993;-75
2023/01/15 01:20:51;;;;;;;0.83;0.83;;;;;;;;;;5053569;28;20444;-75
2023/01/15 01:23:18;;;;;;;1.13;0.97;;;;;;;;;;5053816;28;20445;-74
2023/01/15 01:25:46;;;;;;;0.90;0.90;;;;;;;;;;5054091;28;21238;-74
2023/01/15 01:28:14;;;;;;;1.03;1.03;;;;;;;;;;5054704;28;20477;-75
2023/01/15 01:30:41;;;;;;;0.80;0.80;;;;;;;;;;5054791;28;20449;-74
2023/01/15 01:33:09;;;;;;;0.87;0.87;;;;;;;;;;5053794;28;20457;-74
2023/01/15 01:35:36;;;;;;;0.90;0.90;;;;;;;;;;5054856;28;20449;-74
2023/01/15 01:38:03;;;;;;;0.90;0.87;;;;;;;;;;5054282;28;20481;-74
2023/01/15 01:40:30;;;;;;;0.80;0.80;;;;;;;;;;5053496;28;20517;-75
2023/01/15 01:42:57;;;;;;;0.77;0.70;;;;;;;;;;5053314;28;20528;-75
2023/01/15 01:45:27;;;;;;;0.97;0.97;;;;;;;;;;5053526;28;20445;-75
2023/01/15 01:47:55;;;;;;;1.03;1.03;;;;;;;;;;5053155;28;20437;-74
2023/01/15 01:50:23;;;;;;;0.90;0.90;;;;;;;;;;5053122;28;20445;-74
2023/01/15 01:52:52;;;;;;;4.50;1.90;;;;;;;;;;5052572;28;20456;-74
2023/01/15 01:55:21;;;;;;;1.00;1.00;;;;;;;;;;5052792;28;20457;-76
2023/01/15 01:57:48;;;;;;;1.13;1.13;;;;;;;;;;5052497;28;20905;-76
2023/01/15 02:00:16;;;;;;;1.70;1.60;;;;;;;;;;5053314;28;20453;-74
2023/01/15 02:02:45;;;;;;;0.80;0.80;;;;;;;;;;5051831;28;20438;-75
2023/01/15 02:05:15;;;;;;;0.90;0.80;;;;;;;;;;5053907;28;20449;-74
2023/01/15 02:07:42;;;;;;;0.87;0.87;;;;;;;;;;5054815;28;20442;-74
2023/01/15 02:10:14;;;;;;;0.90;0.70;;;;;;;;;;5052867;28;20512;-75
2023/01/15 02:12:48;;;;;;;0.97;0.90;;;;;;;;;;5052995;28;20514;-74
2023/01/15 02:15:16;;;;;;;0.77;0.77;;;;;;;;;;5043507;28;20441;-74
2023/01/15 02:17:48;;;;;;;0.90;0.90;;;;;;;;;;5030538;28;20474;-74
2023/01/15 02:20:24;;;;;;;0.83;0.83;;;;;;;;;;5030144;28;21000;-74
2023/01/15 02:23:00;;;;;;;0.70;0.70;;;;;;;;;;5030170;28;20814;-75
2023/01/15 02:25:30;;;;;;;0.80;0.80;;;;;;;;;;5042214;28;20799;-74
2023/01/15 02:28:02;;;;;;;0.90;0.90;;;;;;;;;;5050671;28;20921;-74
2023/01/15 02:30:30;;;;;;;1.13;0.60;;;;;;;;;;5054883;28;20441;-76
2023/01/15 02:32:59;;;;;;;0.60;0.60;;;;;;;;;;5051803;28;20445;-73
2023/01/15 02:35:29;;;;;;;0.73;0.73;;;;;;;;;;5050869;28;20453;-73
2023/01/15 02:37:59;;;;;;;0.60;0.60;;;;;;;;;;5050797;28;20520;-75
2023/01/15 02:40:26;;;;;;;0.70;0.70;;;;;;;;;;5066447;28;20461;-75
2023/01/15 02:42:54;;;;;;;0.67;0.63;;;;;;;;;;5068186;28;20471;-74
2023/01/15 02:45:26;;;;;;;0.70;0.70;;;;;;;;;;5059598;28;20449;-74
2023/01/15 02:47:55;;;;;;;0.57;0.57;;;;;;;;;;5049870;28;20507;-74
2023/01/15 02:50:23;;;;;;;0.70;0.70;;;;;;;;;;5051199;28;20441;-74
2023/01/15 02:52:54;;;;;;;0.80;0.80;;;;;;;;;;5050420;28;20487;-73
2023/01/15 02:55:23;;;;;;;0.70;0.70;;;;;;;;;;5050802;28;20960;-73
2023/01/15 02:57:51;;;;;;;0.80;0.80;;;;;;;;;;5050091;28;20598;-74
2023/01/15 03:00:19;;;;;;;1.50;1.07;;;;;;;;;;5049628;28;20449;-74
2023/01/15 03:02:50;;;;;;;0.70;0.70;;;;;;;;;;5049286;28;20445;-74
2023/01/15 03:05:19;;;;;;;0.50;0.50;;;;;;;;;;5049735;28;20453;-75
2023/01/15 03:07:48;;;;;;;0.43;0.43;;;;;;;;;;5048875;28;20453;-75
2023/01/15 03:10:15;;;;;;;1.53;0.70;;;;;;;;;;5048886;28;20476;-74
2023/01/15 03:13:04;;;;;;;2.00;0.70;;;;;;;;;;5049335;28;20457;-74
2023/01/15 03:18:26;;;;;;;0.60;0.60;;;;;;;;;;5049128;28;20477;-75
2023/01/15 03:20:55;;;;;;;1.13;0.73;;;;;;;;;;5049334;28;20460;-75
2023/01/15 03:23:26;;;;;;;0.50;0.50;;;;;;;;;;5049271;28;20449;-74
2023/01/15 03:25:53;;;;;;;0.40;0.40;;;;;;;;;;5049256;28;20453;-74
2023/01/15 03:28:22;;;;;;;0.60;0.60;;;;;;;;;;5048923;28;20474;-74
2023/01/15 03:30:50;;;;;;;0.50;0.50;;;;;;;;;;5048882;28;20441;-74
2023/01/15 03:33:17;;;;;;;0.60;0.60;;;;;;;;;;5048587;28;20556;-74
2023/01/15 03:35:48;;;;;;;0.77;0.40;;;;;;;;;;5049163;28;20449;-74
2023/01/15 03:38:16;;;;;;;0.77;0.60;;;;;;;;;;5049813;28;20488;-74
2023/01/15 03:40:48;;;;;;;0.60;0.60;;;;;;;;;;5066887;28;20445;-74
2023/01/15 03:46:04;;;;;;;0.40;0.40;;;;;;;;;;5049352;28;20564;-75
2023/01/15 03:48:35;;;;;;;0.37;0.37;;;;;;;;;;5048638;28;20912;-73
2023/01/15 03:51:05;;;;;;;0.80;0.60;;;;;;;;;;5057821;28;20445;-74
2023/01/15 03:53:34;;;;;;;0.40;0.40;;;;;;;;;;5059190;28;20441;-75
2023/01/15 03:56:04;;;;;;;0.50;0.50;;;;;;;;;;5054010;28;20457;-73
2023/01/15 03:58:33;;;;;;;0.50;0.50;;;;;;;;;;5049825;28;21050;-74
2023/01/15 04:01:02;;;;;;;0.53;0.53;;;;;;;;;;5049682;28;20449;-74
2023/01/15 04:03:31;;;;;;;0.40;0.40;;;;;;;;;;5049726;28;20441;-74
2023/01/15 04:05:59;;;;;;;0.80;0.60;;;;;;;;;;5049375;28;20941;-74
2023/01/15 04:08:28;;;;;;;0.50;0.50;;;;;;;;;;5048943;28;20466;-74
2023/01/15 04:10:56;;;;;;;0.43;0.43;;;;;;;;;;5049812;28;20449;-74
2023/01/15 04:13:24;;;;;;;0.50;0.50;;;;;;;;;;5052333;28;20437;-74
2023/01/15 04:15:51;;;;;;;0.50;0.50;;;;;;;;;;5038685;28;20465;-74
2023/01/15 04:18:19;;;;;;;0.40;0.40;;;;;;;;;;5041257;28;20480;-73
2023/01/15 04:20:46;;;;;;;0.40;0.40;;;;;;;;;;5068927;28;20448;-73
2023/01/15 04:23:13;;;;;;;0.43;0.43;;;;;;;;;;5068496;28;20451;-74
2023/01/15 04:25:42;;;;;;;0.50;0.47;;;;;;;;;;5068176;28;20440;-74
2023/01/15 04:28:09;;;;;;;0.90;0.50;;;;;;;;;;5068375;28;20456;-74
2023/01/15 04:30:37;;;;;;;0.50;0.50;;;;;;;;;;5068168;28;20495;-75
2023/01/15 04:33:04;;;;;;;0.50;0.50;;;;;;;;;;5067778;28;21031;-73
2023/01/15 04:35:31;;;;;;;0.40;0.40;;;;;;;;;;5068228;28;20445;-73
2023/01/15 04:37:58;;;;;;;0.40;0.40;;;;;;;;;;5067452;28;20688;-74
2023/01/15 04:46:05;;;;;;;0.40;0.40;;;;;;;;;;5031081;28;20489;-75
2023/01/15 04:48:32;;;;;;;0.40;0.40;;;;;;;;;;5067741;28;20613;-75
2023/01/15 04:51:02;;;;;;;0.40;0.40;;;;;;;;;;5067683;28;20471;-74
2023/01/15 04:53:29;;;;;;;1.07;0.50;;;;;;;;;;5067268;28;20997;-73
2023/01/15 04:56:01;;;;;;;0.60;0.60;;;;;;;;;;5067350;28;20433;-76
2023/01/15 04:58:29;;;;;;;0.50;0.50;;;;;;;;;;5067102;28;20574;-73
2023/01/15 05:00:59;;;;;;;0.80;0.40;;;;;;;;;;5067943;28;20445;-74
2023/01/15 05:03:26;;;;;;;0.40;0.40;;;;;;;;;;5067640;28;20449;-74
2023/01/15 05:05:53;;;;;;;0.60;0.60;;;;;;;;;;5067463;28;20990;-73
2023/01/15 05:08:20;;;;;;;0.50;0.50;;;;;;;;;;5067411;28;20574;-74
2023/01/15 05:10:47;;;;;;;0.50;0.50;;;;;;;;;;5067155;28;20482;-73
2023/01/15 05:13:14;;;;;;;0.50;0.50;;;;;;;;;;5067016;28;20441;-75
2023/01/15 05:15:45;;;;;;;0.40;0.40;;;;;;;;;;5056874;28;20992;-75
2023/01/15 05:18:13;;;;;;;0.50;0.50;;;;;;;;;;5047244;28;20515;-74
2023/01/15 05:20:40;;;;;;;0.50;0.50;;;;;;;;;;5047234;28;20477;-74
2023/01/15 05:23:08;;;;;;;0.50;0.50;;;;;;;;;;5046922;28;20449;-75
2023/01/15 05:25:36;;;;;;;0.87;0.50;;;;;;;;;;5047135;28;20456;-74
2023/01/15 05:28:04;;;;;;;0.63;0.50;;;;;;;;;;5047008;28;20460;-75
2023/01/15 05:30:31;;;;;;;1.50;0.60;;;;;;;;;;5047259;28;20472;-74
2023/01/15 05:32:59;;;;;;;1.47;0.70;;;;;;;;;;5046960;28;20469;-74
2023/01/15 05:35:26;;;;;;;0.50;0.50;;;;;;;;;;5047260;28;20785;-74
2023/01/15 05:37:53;;;;;;;0.50;0.50;;;;;;;;;;5049742;28;21005;-75
2023/01/15 05:40:20;;;;;;;0.50;0.50;;;;;;;;;;5051230;28;20483;-75
2023/01/15 05:42:47;;;;;;;0.80;0.80;;;;;;;;;;5051219;28;20514;-75
2023/01/15 05:45:14;;;;;;;0.57;0.57;;;;;;;;;;5051166;28;20914;-75
2023/01/15 05:47:41;;;;;;;0.70;0.70;;;;;;;;;;5046032;28;20454;-74
2023/01/15 05:50:11;;;;;;;0.70;0.70;;;;;;;;;;5044250;28;21077;-73
2023/01/15 05:52:38;;;;;;;0.70;0.60;;;;;;;;;;5052009;28;20445;-74
2023/01/15 05:55:05;;;;;;;0.70;0.70;;;;;;;;;;5056741;28;20453;-74
2023/01/15 05:57:32;;;;;;;0.80;0.80;;;;;;;;;;5051931;28;20795;-75
2023/01/15 05:59:59;;;;;;;0.60;0.53;;;;;;;;;;5054711;28;20485;-75
2023/01/15 06:02:26;;;;;;;0.60;0.60;;;;;;;;;;5056341;28;20456;-74
2023/01/15 06:04:53;;;;;;;0.70;0.70;;;;;;;;;;5052834;28;21000;-74
2023/01/15 06:07:22;;;;;;;0.70;0.70;;;;;;;;;;5051303;28;20449;-74
2023/01/15 06:09:49;;;;;;;1.47;0.53;;;;;;;;;;5050582;28;20461;-75
2023/01/15 06:12:16;;;;;;;0.80;0.80;;;;;;;;;;5051129;28;20939;-74
2023/01/15 06:14:43;;;;;;;3.50;0.70;;;;;;;;;;5051120;28;20475;-74
2023/01/15 06:17:10;;;;;;;0.50;0.50;;;;;;;;;;5063790;28;20507;-74
2023/01/15 06:19:37;;;;;;;0.40;0.40;;;;;;;;;;5072211;28;20480;-74
2023/01/15 06:22:04;;;;;;;0.50;0.50;;;;;;;;;;5059813;28;20464;-74
2023/01/15 06:24:34;;;;;;;0.60;0.60;;;;;;;;;;5050613;28;20449;-75
2023/01/15 06:27:01;;;;;;;0.70;0.70;;;;;;;;;;5050056;28;20461;-74
2023/01/15 06:29:28;;;;;;;0.50;0.50;;;;;;;;;;5050300;28;20462;-75
2023/01/15 06:31:55;;;;;;;0.43;0.43;;;;;;;;;;5053673;28;20512;-74
2023/01/15 06:34:22;;;;;;;0.50;0.50;;;;;;;;;;5052187;28;20450;-75
2023/01/15 06:36:49;;;;;;;0.50;0.50;;;;;;;;;;5050297;28;20454;-74
2023/01/15 06:39:16;;;;;;;0.43;0.43;;;;;;;;;;5049954;28;20485;-75
2023/01/15 06:47:20;;;;;;;0.60;0.60;;;;;;;;;;5046301;28;20425;-74
2023/01/15 06:49:48;;;;;;;0.60;0.60;;;;;;;;;;5071750;28;20695;-74
2023/01/15 06:52:15;;;;;;;0.60;0.60;;;;;;;;;;5071649;28;20440;-75
2023/01/15 06:54:42;;;;;;;0.80;0.80;;;;;;;;;;5070759;28;20515;-73
2023/01/15 06:57:10;;;;;;;0.80;0.63;;;;;;;;;;5069458;28;20454;-73
2023/01/15 06:59:37;;;;;;;0.70;0.70;;;;;;;;;;5069855;28;20936;-75
2023/01/15 07:02:04;;;;;;;0.60;0.60;;;;;;;;;;5069364;28;20441;-74
2023/01/15 07:04:32;;;;;;;0.53;0.53;;;;;;;;;;5070978;28;20454;-74
2023/01/15 07:06:59;;;;;;;1.17;0.60;;;;;;;;;;5071085;28;20525;-74
2023/01/15 07:09:26;;;;;;;0.60;0.60;;;;;;;;;;5069692;28;20468;-74
2023/01/15 07:11:53;;;;;;;0.57;0.50;;;;;;;;;;5069577;28;20470;-75
2023/01/15 07:14:22;;;;;;;0.93;0.50;;;;;;;;;;5069403;28;20452;-74
2023/01/15 07:16:50;;;;;;;0.60;0.60;;;;;;;;;;5070439;28;20728;-74
2023/01/15 07:19:17;;;;;;;0.70;0.70;;;;;;;;;;5068793;28;20476;-76
2023/01/15 07:21:44;;;;;;;0.60;0.60;;;;;;;;;;5068916;28;20449;-76
2023/01/15 07:24:12;;;;;;;0.70;0.70;;;;;;;;;;5068475;28;20525;-75
2023/01/15 07:26:39;;;;;;;2.93;0.87;;;;;;;;;;5068727;28;20451;-76
2023/01/15 07:29:06;;;;;;;0.70;0.70;;;;;;;;;;5068904;28;20456;-74
2023/01/15 07:31:35;;;;;;;0.57;0.57;;;;;;;;;;5068647;28;20834;-75
2023/01/15 07:34:02;;;;;;;0.77;0.77;;;;;;;;;;5068994;28;20445;-75
2023/01/15 07:36:29;;;;;;;0.67;0.67;;;;;;;;;;5068939;28;20912;-74
2023/01/15 07:38:56;;;;;;;0.70;0.70;;;;;;;;;;5068641;28;20488;-74
2023/01/15 07:49:47;;;;;;;0.67;0.67;;;;;;;;;;5069754;28;20624;-74
2023/01/15 07:52:15;;;;;;;0.60;0.60;;;;;;;;;;5069240;28;20457;-74
2023/01/15 07:54:42;;;;;;;0.70;0.70;;;;;;;;;;5068913;28;20448;-75
2023/01/15 07:57:09;;;;;;;1.13;1.03;;;;;;;;;;5068864;28;20826;-75
2023/01/15 07:59:36;;;;;;;0.70;0.67;;;;;;;;;;5067450;28;20484;-75
2023/01/15 08:02:05;;;;;;;1.20;1.10;;;;;;;;;;5068336;28;20468;-77
2023/01/15 08:04:32;;;;;;;0.60;0.60;;;;;;;;;;5068152;28;20448;-75
2023/01/15 08:07:00;;;;;;;0.63;0.63;;;;;;;;;;5068369;28;20817;-74
2023/01/15 08:09:27;;;;;;;0.57;0.57;;;;;;;;;;5068171;28;20472;-76
2023/01/15 08:17:25;;;;;;;0.60;0.60;;;;;;;;;;5068643;28;20424;-76
2023/01/15 08:19:52;;;;;;;0.70;0.70;;;;;;;;;;5068986;28;20518;-75
2023/01/15 08:22:19;;;;;;;0.70;0.70;;;;;;;;;;5069157;28;20956;-74
2023/01/15 08:24:46;;;;;;;0.80;0.80;;;;;;;;;;5069772;28;20443;-74
2023/01/15 08:27:13;;;;;;;0.73;0.73;;;;;;;;;;5070063;28;20449;-75
2023/01/15 08:29:40;;;;;;;0.57;0.57;;;;;;;;;;5070432;28;20461;-76
2023/01/15 08:32:08;;;;;;;0.80;0.80;;;;;;;;;;5069815;28;20448;-75
2023/01/15 08:34:37;;;;;;;0.97;0.70;;;;;;;;;;5067777;28;20448;-75
2023/01/15 08:37:04;;;;;;;0.60;0.60;;;;;;;;;;5067709;28;20975;-75
2023/01/15 08:39:31;;;;;;;0.70;0.70;;;;;;;;;;5067844;28;20496;-77
2023/01/15 08:41:58;;;;;;;0.70;0.70;;;;;;;;;;5068126;28;20457;-76
2023/01/15 08:44:25;;;;;;;2.00;0.90;;;;;;;;;;5067711;28;20459;-76
2023/01/15 08:46:52;;;;;;;0.70;0.70;;;;;;;;;;5067684;28;20445;-75
2023/01/15 08:49:20;;;;;;;0.70;0.70;;;;;;;;;;5067991;28;20465;-75
2023/01/15 08:51:50;;;;;;;0.50;0.50;;;;;;;;;;5068703;28;20839;-75
2023/01/15 08:54:18;;;;;;;0.63;0.63;;;;;;;;;;5068649;28;20815;-76
2023/01/15 08:56:45;;;;;;;0.60;0.60;;;;;;;;;;5070525;28;20936;-76
2023/01/15 08:59:12;;;;;;;0.93;0.93;;;;;;;;;;5069415;28;20480;-76
2023/01/15 09:01:39;;;;;;;0.60;0.60;;;;;;;;;;5067873;28;20908;-76
2023/01/15 09:04:07;;;;;;;0.50;0.50;;;;;;;;;;5046954;28;20529;-76
2023/01/15 09:06:34;;;;;;;0.60;0.60;;;;;;;;;;5047489;28;20951;-75
2023/01/15 09:09:02;;;;;;;0.73;0.73;;;;;;;;;;5047553;28;20480;-75
2023/01/15 09:11:29;;;;;;;0.73;0.73;;;;;;;;;;5050427;28;20441;-76
2023/01/15 09:13:56;;;;;;;0.60;0.60;;;;;;;;;;5051319;28;20437;-74
2023/01/15 09:16:25;;;;;;;0.60;0.60;;;;;;;;;;5034892;28;20442;-75
2023/01/15 09:18:52;;;;;;;0.60;0.60;;;;;;;;;;5031245;28;20475;-74
2023/01/15 09:21:19;;;;;;;0.90;0.90;;;;;;;;;;5045463;28;20964;-76
2023/01/15 09:23:46;;;;;;;1.07;0.60;;;;;;;;;;5052311;28;20880;-76
2023/01/15 09:26:28;;;;;;;0.60;0.60;;;;;;;;;;5059806;28;20452;-75
2023/01/15 09:28:55;;;;;;;0.97;0.97;;;;;;;;;;5054650;28;20445;-75
2023/01/15 09:31:22;;;;;;;0.87;0.83;;;;;;;;;;5051984;28;20441;-76
2023/01/15 09:33:49;;;;;;;0.93;0.93;;;;;;;;;;5051494;28;20445;-76
2023/01/15 09:36:18;;;;;;;1.63;0.80;;;;;;;;;;5051251;28;20861;-76
2023/01/15 09:38:45;;;;;;;0.70;0.70;;;;;;;;;;5051207;28;20663;-75
2023/01/15 09:44:00;;;;;;;0.70;0.70;;;;;;;;;;5051300;28;20433;-75
2023/01/15 09:46:31;;;;;;;1.00;1.00;;;;;;;;;;5052676;28;20449;-75
2023/01/15 09:49:03;;;;;;;0.97;0.97;;;;;;;;;;5054511;28;20999;-75
2023/01/15 09:51:34;;;;;;;0.80;0.80;;;;;;;;;;5054517;28;20488;-75
2023/01/15 09:54:15;;;;;;;1.07;0.93;;;;;;;;;;5050566;28;20452;-75
2023/01/15 09:56:42;;;;;;;0.60;0.60;;;;;;;;;;5050729;28;20477;-76
2023/01/15 09:59:19;;;;;;;0.80;0.80;;;;;;;;;;5050329;28;21063;-74
2023/01/15 10:01:47;;;;;;;0.70;0.70;;;;;;;;;;5050315;28;20441;-75
2023/01/15 10:04:18;;;;;;;0.80;0.80;;;;;;;;;;5050089;28;20819;-75
2023/01/15 10:06:49;;;;;;;0.83;0.83;;;;;;;;;;5052121;28;20442;-74
2023/01/15 10:09:17;;;;;;;0.73;0.73;;;;;;;;;;5063811;28;20475;-75
2023/01/15 10:14:38;;;;;;;0.60;0.60;;;;;;;;;;5069606;28;20423;-74
2023/01/15 10:17:05;;;;;;;0.70;0.70;;;;;;;;;;5051316;28;20568;-75
2023/01/15 10:19:32;;;;;;;0.80;0.80;;;;;;;;;;5050728;28;20493;-75
2023/01/15 10:22:03;;;;;;;0.80;0.80;;;;;;;;;;5046582;28;20452;-75
2023/01/15 10:24:32;;;;;;;0.80;0.80;;;;;;;;;;5049011;28;20445;-74
2023/01/15 10:27:00;;;;;;;0.90;0.90;;;;;;;;;;5049916;28;20979;-77
2023/01/15 10:29:30;;;;;;;2.50;0.90;;;;;;;;;;5049615;28;20466;-76
2023/01/15 10:32:04;;;;;;;0.80;0.80;;;;;;;;;;5050764;28;20766;-74
2023/01/15 10:34:49;;;;;;;0.60;0.60;;;;;;;;;;5050367;28;20875;-75
2023/01/15 10:37:19;;;;;;;0.70;0.70;;;;;;;;;;5050844;28;20441;-76
2023/01/15 10:39:49;;;;;;;0.97;0.97;;;;;;;;;;5050459;28;20993;-75
2023/01/15 10:42:24;;;;;;;0.70;0.70;;;;;;;;;;5054281;28;20497;-74
2023/01/15 10:44:56;;;;;;;0.70;0.70;;;;;;;;;;5061484;28;20445;-73
2023/01/15 10:47:31;;;;;;;0.90;0.90;;;;;;;;;;5064226;28;20445;-75
2023/01/15 10:49:59;;;;;;;0.80;0.80;;;;;;;;;;5057271;28;20453;-75
2023/01/15 10:52:28;;;;;;;0.60;0.60;;;;;;;;;;5056966;28;20452;-74
2023/01/15 10:54:59;;;;;;;0.60;0.60;;;;;;;;;;5052405;28;20453;-74
2023/01/15 10:57:37;;;;;;;0.80;0.80;;;;;;;;;;5053808;28;20496;-75
2023/01/15 11:00:04;;;;;;;2.00;0.87;;;;;;;;;;5053732;28;20481;-74
2023/01/15 11:02:35;;;;;;;0.80;0.80;;;;;;;;;;5053777;28;20450;-73
2023/01/15 11:05:02;;;;;;;0.77;0.77;;;;;;;;;;5052575;28;20448;-74
2023/01/15 11:07:34;;;;;;;0.70;0.70;;;;;;;;;;5054044;28;20440;-73
2023/01/15 11:10:03;;;;;;;0.70;0.70;;;;;;;;;;5053371;28;20461;-74
2023/01/15 11:20:50;;;;;;;0.90;0.90;;;;;;;;;;5058939;28;20475;-74
2023/01/15 11:23:18;;;;;;;0.87;0.87;;;;;;;;;;5058799;28;20500;-74
2023/01/15 11:25:49;;;;;;;0.70;0.70;;;;;;;;;;5058096;28;20443;-75
2023/01/15 11:28:16;;;;;;;0.80;0.80;;;;;;;;;;5057972;28;20479;-74
2023/01/15 11:30:44;;;;;;;0.87;0.87;;;;;;;;;;5056401;28;20438;-75
2023/01/15 11:33:22;;;;;;;0.80;0.80;;;;;;;;;;5055442;28;20523;-74
2023/01/15 11:35:51;;;;;;;1.13;0.50;;;;;;;;;;5053153;28;20445;-76
2023/01/15 11:38:21;;;;;;;0.83;0.83;;;;;;;;;;5051936;28;20472;-75
2023/01/15 11:40:52;;;;;;;1.00;1.00;;;;;;;;;;5053477;28;20490;-76
2023/01/15 11:51:40;;;;;;;0.80;0.80;;;;;;;;;;5035800;28;20526;-76
2023/01/15 11:54:08;;;;;;;0.90;0.90;;;;;;;;;;5051297;28;20477;-75
2023/01/15 11:56:36;;;;;;;1.10;1.00;;;;;;;;;;5051519;28;20448;-75
2023/01/15 11:59:04;;;;;;;0.70;0.70;;;;;;;;;;5051130;28;20469;-75
2023/01/15 12:01:33;;;;;;;0.70;0.70;;;;;;;;;;5051711;28;20489;-75
2023/01/15 12:04:03;;;;;;;0.70;0.70;;;;;;;;;;5051622;28;20851;-75
2023/01/15 12:06:30;;;;;;;0.70;0.70;;;;;;;;;;5051367;28;20962;-75
2023/01/15 12:09:02;;;;;;;0.80;0.80;;;;;;;;;;5051723;28;20465;-74
2023/01/15 12:11:40;;;;;;;0.93;0.93;;;;;;;;;;5052264;28;20450;-75
2023/01/15 12:14:23;;;;;;;0.70;0.70;;;;;;;;;;5054450;28;20455;-75
2023/01/15 12:16:55;;;;;;;0.90;0.90;;;;;;;;;;5055155;28;20998;-75
2023/01/15 12:19:26;;;;;;;0.90;0.90;;;;;;;;;;5055459;28;20464;-76
2023/01/15 12:22:11;;;;;;;0.80;0.80;;;;;;;;;;5051961;28;20551;-75
2023/01/15 12:24:43;;;;;;;0.90;0.90;;;;;;;;;;5049578;28;20495;-74
2023/01/15 12:27:16;;;;;;;1.40;1.27;;;;;;;;;;5056900;28;20453;-76
2023/01/15 12:29:45;;;;;;;1.00;1.00;;;;;;;;;;5060051;28;20457;-75
2023/01/15 12:32:14;;;;;;;1.33;0.90;;;;;;;;;;5061308;28;20435;-75
2023/01/15 12:34:46;;;;;;;1.23;1.10;;;;;;;;;;5072782;28;20428;-74
2023/01/15 12:37:19;;;;;;;1.40;1.40;;;;;;;;;;5067794;28;20889;-75
2023/01/15 12:39:48;;;;;;;0.80;0.80;;;;;;;;;;5056395;28;20468;-75
2023/01/15 12:45:04;;;;;;;0.80;0.80;;;;;;;;;;5051421;28;20433;-76
2023/01/15 12:47:33;;;;;;;0.90;0.90;;;;;;;;;;5053793;28;20460;-75
2023/01/15 12:50:04;;;;;;;0.70;0.70;;;;;;;;;;5042760;28;20456;-75
2023/01/15 12:52:34;;;;;;;0.70;0.70;;;;;;;;;;5054829;28;20452;-76
2023/01/15 12:55:04;;;;;;;1.00;1.00;;;;;;;;;;5055393;28;20445;-74
2023/01/15 12:57:34;;;;;;;0.70;0.70;;;;;;;;;;5054379;28;20452;-75
2023/01/15 13:00:06;;;;;;;0.87;0.87;;;;;;;;;;5056464;28;20500;-77
2023/01/15 13:02:37;;;;;;;1.50;0.90;;;;;;;;;;5055043;28;20452;-76
2023/01/15 13:05:17;;;;;;;1.53;1.10;;;;;;;;;;5058411;28;20460;-77
2023/01/15 13:07:45;;;;;;;0.77;0.77;;;;;;;;;;5058072;28;20477;-77
2023/01/15 13:10:16;;;;;;;0.80;0.80;;;;;;;;;;5055198;28;20465;-75
2023/01/15 13:12:43;;;;;;;0.70;0.70;;;;;;;;;;5056182;28;20452;-76
2023/01/15 13:15:13;;;;;;;1.10;1.10;;;;;;;;;;5058401;28;20437;-77
2023/01/15 13:17:44;;;;;;;2.30;1.00;;;;;;;;;;5062519;28;20440;-76
2023/01/15 13:20:22;;;;;;;0.80;0.80;;;;;;;;;;5056129;28;20477;-77
2023/01/15 13:22:53;;;;;;;1.13;1.10;;;;;;;;;;5056059;28;20438;-76
2023/01/15 13:25:30;;;;;;;1.20;0.80;;;;;;;;;;5058810;28;20937;-76
2023/01/15 13:28:05;;;;;;;1.30;1.20;;;;;;;;;;5059129;28;20459;-78
2023/01/15 13:30:37;;;;;;;1.10;1.00;;;;;;;;;;5057053;28;20443;-75
2023/01/15 13:33:10;;;;;;;1.03;0.90;;;;;;;;;;5055192;28;20813;-77
2023/01/15 13:35:42;;;;;;;1.10;0.93;;;;;;;;;;5057723;28;20811;-76
2023/01/15 13:38:15;;;;;;;1.20;1.20;;;;;;;;;;5059196;28;20504;-76
2023/01/15 13:40:49;;;;;;;2.30;1.10;;;;;;;;;;5056339;28;20651;-75
2023/01/15 13:43:24;;;;;;;1.10;1.10;;;;;;;;;;5056476;28;20432;-74
2023/01/15 13:45:51;;;;;;;1.17;1.17;;;;;;;;;;5060071;28;20432;-77
2023/01/15 13:48:19;;;;;;;1.03;0.93;;;;;;;;;;5038162;28;20488;-75
2023/01/15 13:50:53;;;;;;;1.23;1.07;;;;;;;;;;5034272;28;20442;-76
2023/01/15 13:53:26;;;;;;;1.23;1.10;;;;;;;;;;5045338;28;20452;-75
2023/01/15 13:55:55;;;;;;;1.30;1.20;;;;;;;;;;5053030;28;20521;-75
2023/01/15 13:58:24;;;;;;;1.23;1.10;;;;;;;;;;5051892;28;20472;-77
2023/01/15 14:01:01;;;;;;;1.63;1.57;;;;;;;;;;5052508;28;20477;-76
2023/01/15 14:03:29;;;;;;;3.40;1.23;;;;;;;;;;5052495;28;20443;-76
2023/01/15 14:05:58;;;;;;;1.90;1.30;;;;;;;;;;5052561;28;20516;-75
2023/01/15 14:08:27;;;;;;;1.50;1.40;;;;;;;;;;5056143;28;20472;-76
2023/01/15 14:10:55;;;;;;;3.00;1.13;;;;;;;;;;5057586;28;20471;-77
2023/01/15 14:13:35;;;;;;;1.13;0.90;;;;;;;;;;5055432;28;20445;-76
2023/01/15 14:16:08;;;;;;;1.23;1.17;;;;;;;;;;5051803;28;20466;-76
2023/01/15 14:18:57;;;;;;;1.00;1.00;;;;;;;;;;5057747;28;21004;-75
2023/01/15 14:21:39;;;;;;;1.57;1.47;;;;;;;;;;5059992;28;20508;-75
2023/01/15 14:24:17;;;;;;;2.20;1.10;;;;;;;;;;5059297;28;20447;-74
2023/01/15 14:26:47;;;;;;;6.53;4.13;;;;;;;;;;5051457;28;20459;-76
2023/01/15 14:29:26;;;;;;;1.20;1.20;;;;;;;;;;5051720;28;20460;-73
2023/01/15 14:32:00;;;;;;;1.97;1.33;;;;;;;;;;5052461;28;20445;-75
2023/01/15 14:34:29;;;;;;;1.03;0.90;;;;;;;;;;5062773;28;20502;-74
2023/01/15 14:37:00;;;;;;;1.67;1.43;;;;;;;;;;5060833;28;20543;-74
2023/01/15 14:39:29;;;;;;;2.00;1.30;;;;;;;;;;5056696;28;20551;-75
2023/01/15 14:44:44;;;;;;;3.80;1.40;;;;;;;;;;5053662;28;20498;-75
2023/01/15 14:47:29;;;;;;;1.93;1.63;;;;;;;;;;5055220;28;20451;-74
2023/01/15 14:50:00;;;;;;;2.63;1.60;;;;;;;;;;5056537;28;20463;-73
2023/01/15 14:52:29;;;;;;;1.30;1.20;;;;;;;;;;5054971;28;20549;-75
2023/01/15 14:54:56;;;;;;;3.17;1.20;;;;;;;;;;5050993;28;20473;-74
2023/01/15 14:57:24;;;;;;;1.60;1.30;;;;;;;;;;5051067;28;20501;-75
2023/01/15 14:59:54;;;;;;;2.20;1.10;;;;;;;;;;5050771;28;20469;-73
2023/01/15 15:02:23;;;;;;;3.47;1.43;;;;;;;;;;5050654;28;20656;-74
2023/01/15 15:04:52;;;;;;;1.23;0.90;;;;;;;;;;5050099;28;20958;-74
2023/01/15 15:07:23;;;;;;;1.00;0.70;;;;;;;;;;5060942;28;20523;-74
2023/01/15 15:09:55;;;;;;;1.27;1.17;;;;;;;;;;5068182;28;20469;-74
2023/01/15 15:12:27;;;;;;;2.93;1.10;;;;;;;;;;5062660;28;20472;-74
2023/01/15 15:14:59;;;;;;;2.00;1.17;;;;;;;;;;5062233;28;20433;-74
2023/01/15 15:17:31;;;;;;;2.23;1.20;;;;;;;;;;5063740;28;20445;-75
2023/01/15 15:20:02;;;;;;;1.50;1.40;;;;;;;;;;5058097;28;20471;-74
2023/01/15 15:22:31;;;;;;;0.97;0.97;;;;;;;;;;5061531;28;20563;-73
2023/01/15 15:25:01;;;;;;;2.90;1.03;;;;;;;;;;5064551;28;20480;-74
2023/01/15 15:27:29;;;;;;;1.27;1.20;;;;;;;;;;5066315;28;20607;-72
2023/01/15 15:30:03;;;;;;;2.20;1.00;;;;;;;;;;5064854;28;20526;-73
2023/01/15 15:32:30;;;;;;;1.30;1.30;;;;;;;;;;5071338;28;20454;-73
2023/01/15 15:34:58;;;;;;;1.10;1.10;;;;;;;;;;5070297;28;20457;-73
2023/01/15 15:37:26;;;;;;;2.43;1.53;;;;;;;;;;5069866;28;20475;-74
2023/01/15 15:39:56;;;;;;;5.00;1.50;;;;;;;;;;5069908;28;20474;-73
2023/01/15 15:50:57;;;;;;;3.00;1.53;;;;;;;;;;5073898;28;20440;-73
2023/01/15 15:53:24;;;;;;;1.87;1.77;;;;;;;;;;5075012;28;20516;-73
2023/01/15 15:55:52;;;;;;;1.23;1.23;;;;;;;;;;5075106;28;20444;-73
2023/01/15 15:58:23;;;;;;;1.37;1.20;;;;;;;;;;5075185;28;20476;-73
2023/01/15 16:00:51;;;;;;;1.20;1.20;;;;;;;;;;5074702;28;20420;-73
2023/01/15 16:03:20;;;;;;;1.13;1.03;;;;;;;;;;5084839;28;20434;-73
2023/01/15 16:05:55;;;;;;;1.00;1.00;;;;;;;;;;5075692;28;20499;-73
2023/01/15 16:08:22;;;;;;;2.20;1.00;;;;;;;;;;5071893;28;20502;-72